Time;durP1;ratioP1;P1;durP2;ratioP2;P2;SDS_P1;SDS_P2;PMS_P1;PMS_P2;Temp;Humidity;BMP_temperature;BMP_pressure;BME280_temperature;BME280_humidity;BME280_pressure;Samples;Min_cycle;Max_cycle;Signal;HPM_P1;HPM_P2
2023/02/01 00:02:25;;;;;;;;;;;;;;;;;;4918710;28;19914;-68
2023/02/01 00:04:51;;;;;;;;;;;;;;;;;;4921198;28;20361;-68
2023/02/01 00:07:17;;;;;;;;;;;;;;;;;;4924119;28;19921;-68
2023/02/01 00:09:43;;;;;;;;;;;;;;;;;;4937232;28;19921;-68
2023/02/01 00:12:09;;;;;;;;;;;;;;;;;;4931642;28;19921;-68
2023/02/01 00:14:38;;;;;;;;;;;;;;;;;;4942678;28;19914;-68
2023/02/01 00:17:04;;;;;;;;;;;;;;;;;;4938892;28;19922;-68
2023/02/01 00:19:30;;;;;;;;;;;;;;;;;;4937525;28;19918;-68
2023/02/01 00:21:56;;;;;;;;;;;;;;;;;;4932652;28;19983;-68
2023/02/01 00:24:22;;;;;;;;;;;;;;;;;;4937118;28;20404;-68
2023/02/01 00:26:48;;;;;;;;;;;;;;;;;;4938707;28;19926;-68
2023/02/01 00:29:14;;;;;;;;;;;;;;;;;;4939729;28;20403;-68
2023/02/01 00:31:40;;;;;;;;;;;;;;;;;;4921029;28;19918;-67
2023/02/01 00:34:06;;;;;;;;;;;;;;;;;;4939749;28;19991;-67
2023/02/01 00:36:32;;;;;;;;;;;;;;;;;;4939137;28;19933;-67
2023/02/01 00:38:57;;;;;;;;;;;;;;;;;;4933725;28;19918;-69
2023/02/01 00:41:24;;;;;;;;;;;;;;;;;;4925506;28;19914;-68
2023/02/01 00:43:49;;;;;;;;;;;;;;;;;;4941689;28;19969;-68
2023/02/01 00:46:15;;;;;;;;;;;;;;;;;;4917290;28;20330;-68
2023/02/01 00:48:41;;;;;;;;;;;;;;;;;;4940855;28;19921;-68
2023/02/01 00:51:07;;;;;;;;;;;;;;;;;;4935544;28;20000;-68
2023/02/01 00:53:33;;;;;;;;;;;;;;;;;;4936043;28;19929;-68
2023/02/01 00:55:59;;;;;;;;;;;;;;;;;;4934550;28;21634;-67
2023/02/01 00:58:25;;;;;;;;;;;;;;;;;;4918154;28;20353;-68
2023/02/01 01:00:51;;;;;;;;;;;;;;;;;;4938825;28;19918;-68
2023/02/01 01:03:17;;;;;;;;;;;;;;;;;;4936696;28;20228;-68
2023/02/01 01:05:43;;;;;;;;;;;;;;;;;;4936904;28;19924;-68
2023/02/01 01:08:09;;;;;;;;;;;;;;;;;;4932969;28;20235;-68
2023/02/01 01:10:35;;;;;;;;;;;;;;;;;;4934420;28;19914;-68
2023/02/01 01:13:01;;;;;;;;;;;;;;;;;;4930792;28;19921;-68
2023/02/01 01:15:27;;;;;;;;;;;;;;;;;;4933372;28;20024;-68
2023/02/01 01:17:53;;;;;;;;;;;;;;;;;;4914921;28;19948;-68
2023/02/01 01:20:21;;;;;;;;;;;;;;;;;;4918550;28;19914;-68
2023/02/01 01:22:47;;;;;;;;;;;;;;;;;;4936095;28;19920;-68
2023/02/01 01:25:13;;;;;;;;;;;;;;;;;;4917308;28;19914;-67
2023/02/01 01:27:39;;;;;;;;;;;;;;;;;;4936828;28;19914;-68
2023/02/01 01:30:05;;;;;;;;;;;;;;;;;;4936675;28;19921;-67
2023/02/01 01:32:31;;;;;;;;;;;;;;;;;;4934512;28;20441;-67
2023/02/01 01:34:57;;;;;;;;;;;;;;;;;;4939250;28;20485;-68
2023/02/01 01:37:23;;;;;;;;;;;;;;;;;;4921931;28;19944;-69
2023/02/01 01:39:49;;;;;;;;;;;;;;;;;;4940143;28;19914;-68
2023/02/01 01:42:15;;;;;;;;;;;;;;;;;;4933461;28;19988;-68
2023/02/01 01:44:41;;;;;;;;;;;;;;;;;;4939473;28;20256;-68
2023/02/01 01:47:07;;;;;;;;;;;;;;;;;;4936947;28;19918;-70
2023/02/01 01:49:33;;;;;;;;;;;;;;;;;;4936517;28;19914;-69
2023/02/01 01:51:59;;;;;;;;;;;;;;;;;;4920713;28;19914;-68
2023/02/01 01:54:25;;;;;;;;;;;;;;;;;;4942012;28;19984;-68
2023/02/01 01:56:51;;;;;;;;;;;;;;;;;;4930284;28;19993;-68
2023/02/01 01:59:17;;;;;;;;;;;;;;;;;;4940901;28;19966;-68
2023/02/01 02:01:43;;;;;;;;;;;;;;;;;;4923940;28;19918;-68
2023/02/01 02:04:09;;;;;;;;;;;;;;;;;;4920860;28;19914;-68
2023/02/01 02:06:35;;;;;;;;;;;;;;;;;;4920541;28;19922;-68
2023/02/01 02:09:01;;;;;;;;;;;;;;;;;;4937198;28;19918;-68
2023/02/01 02:11:27;;;;;;;;;;;;;;;;;;4938731;28;20436;-68
2023/02/01 02:13:53;;;;;;;;;;;;;;;;;;4918517;28;19914;-68
2023/02/01 02:16:19;;;;;;;;;;;;;;;;;;4921877;28;19917;-68
2023/02/01 02:18:45;;;;;;;;;;;;;;;;;;4937209;28;19919;-68
2023/02/01 02:21:10;;;;;;;;;;;;;;;;;;4922014;28;20432;-68
2023/02/01 02:23:36;;;;;;;;;;;;;;;;;;4922534;28;20352;-68
2023/02/01 02:26:02;;;;;;;;;;;;;;;;;;4939142;28;20310;-68
2023/02/01 02:28:28;;;;;;;;;;;;;;;;;;4937546;28;20794;-68
2023/02/01 02:30:54;;;;;;;;;;;;;;;;;;4919604;28;20600;-68
2023/02/01 02:33:20;;;;;;;;;;;;;;;;;;4938097;28;19920;-67
2023/02/01 02:35:47;;;;;;;;;;;;;;;;;;4936810;28;19928;-68
2023/02/01 02:38:13;;;;;;;;;;;;;;;;;;4919671;28;20204;-67
2023/02/01 02:40:39;;;;;;;;;;;;;;;;;;4921014;28;20232;-67
2023/02/01 02:48:37;;;;;;;;;;;;;;;;;;4944835;28;19992;-66
2023/02/01 03:04:46;;;;;;;;;;;;;;;;;;4945120;28;19997;-67
2023/02/01 03:07:12;;;;;;;;;;;;;;;;;;4939119;28;20476;-67
2023/02/01 03:09:38;;;;;;;;;;;;;;;;;;4926542;28;20071;-68
2023/02/01 03:14:50;;;;;;;;;;;;;;;;;;4913200;28;19917;-68
2023/02/01 03:17:17;;;;;;;;;;;;;;;;;;4941642;28;19914;-67
2023/02/01 03:19:47;;;;;;;;;;;;;;;;;;4945084;28;19960;-68
2023/02/01 03:22:13;;;;;;;;;;;;;;;;;;4941262;28;20181;-68
2023/02/01 03:24:39;;;;;;;;;;;;;;;;;;4938400;28;19957;-68
2023/02/01 03:27:04;;;;;;;;;;;;;;;;;;4925092;28;19914;-68
2023/02/01 03:29:30;;;;;;;;;;;;;;;;;;4926238;28;19932;-68
2023/02/01 03:31:56;;;;;;;;;;;;;;;;;;4939516;28;20477;-68
2023/02/01 03:34:22;;;;;;;;;;;;;;;;;;4940935;28;20278;-67
2023/02/01 03:36:48;;;;;;;;;;;;;;;;;;4928697;28;19913;-68
2023/02/01 03:39:14;;;;;;;;;;;;;;;;;;4933874;28;20507;-68
2023/02/01 03:41:40;;;;;;;;;;;;;;;;;;4939173;28;19915;-68
2023/02/01 03:44:06;;;;;;;;;;;;;;;;;;4925124;28;20016;-68
2023/02/01 03:46:32;;;;;;;;;;;;;;;;;;4924108;28;19918;-69
2023/02/01 03:48:58;;;;;;;;;;;;;;;;;;4938827;28;21028;-69
2023/02/01 03:51:25;;;;;;;;;;;;;;;;;;4941174;28;19920;-67
2023/02/01 03:53:51;;;;;;;;;;;;;;;;;;4944485;28;19921;-68
2023/02/01 03:56:17;;;;;;;;;;;;;;;;;;4923291;28;19914;-68
2023/02/01 03:58:57;;;;;;;;;;;;;;;;;;4937043;28;20197;-67
2023/02/01 04:01:23;;;;;;;;;;;;;;;;;;4924698;28;20396;-67
2023/02/01 04:03:53;;;;;;;;;;;;;;;;;;4927994;28;19914;-67
2023/02/01 04:06:19;;;;;;;;;;;;;;;;;;4941496;28;20029;-68
2023/02/01 04:08:45;;;;;;;;;;;;;;;;;;4941254;28;19914;-68
2023/02/01 04:11:11;;;;;;;;;;;;;;;;;;4938192;28;19973;-68
2023/02/01 04:13:37;;;;;;;;;;;;;;;;;;4941371;28;20352;-68
2023/02/01 04:16:03;;;;;;;;;;;;;;;;;;4923395;28;19918;-68
2023/02/01 04:18:29;;;;;;;;;;;;;;;;;;4924310;28;19917;-68
2023/02/01 04:20:55;;;;;;;;;;;;;;;;;;4937691;28;20434;-68
2023/02/01 04:23:21;;;;;;;;;;;;;;;;;;4938861;28;20378;-68
2023/02/01 04:25:46;;;;;;;;;;;;;;;;;;4920775;28;20195;-67
2023/02/01 04:28:12;;;;;;;;;;;;;;;;;;4926680;28;20490;-68
2023/02/01 04:30:38;;;;;;;;;;;;;;;;;;4925046;28;20031;-68
2023/02/01 04:33:07;;;;;;;;;;;;;;;;;;4936574;28;19921;-68
2023/02/01 04:35:33;;;;;;;;;;;;;;;;;;4939844;28;19913;-70
2023/02/01 04:37:59;;;;;;;;;;;;;;;;;;4927238;28;20064;-68
2023/02/01 04:40:25;;;;;;;;;;;;;;;;;;4938793;28;19914;-68
2023/02/01 04:42:51;;;;;;;;;;;;;;;;;;4923572;28;19921;-68
2023/02/01 04:45:18;;;;;;;;;;;;;;;;;;4938910;28;20236;-68
2023/02/01 04:47:44;;;;;;;;;;;;;;;;;;4921872;28;20012;-68
2023/02/01 04:50:10;;;;;;;;;;;;;;;;;;4923944;28;19914;-68
2023/02/01 04:52:36;;;;;;;;;;;;;;;;;;4923717;28;19914;-68
2023/02/01 04:55:02;;;;;;;;;;;;;;;;;;4939702;28;19922;-68
2023/02/01 04:57:28;;;;;;;;;;;;;;;;;;4921557;28;19914;-68
2023/02/01 04:59:54;;;;;;;;;;;;;;;;;;4938350;28;19918;-69
2023/02/01 05:02:20;;;;;;;;;;;;;;;;;;4939341;28;20296;-68
2023/02/01 05:04:46;;;;;;;;;;;;;;;;;;4922790;28;20148;-68
2023/02/01 05:07:12;;;;;;;;;;;;;;;;;;4924171;28;19924;-68
2023/02/01 05:09:38;;;;;;;;;;;;;;;;;;4924451;28;20450;-68
2023/02/01 05:14:49;;;;;;;;;;;;;;;;;;4940069;28;20372;-69
2023/02/01 05:17:15;;;;;;;;;;;;;;;;;;4938218;28;19914;-69
2023/02/01 05:19:40;;;;;;;;;;;;;;;;;;4940897;28;19925;-69
2023/02/01 05:22:06;;;;;;;;;;;;;;;;;;4937814;28;20053;-69
2023/02/01 05:24:32;;;;;;;;;;;;;;;;;;4921931;28;19918;-68
2023/02/01 05:26:58;;;;;;;;;;;;;;;;;;4937048;28;20432;-68
2023/02/01 05:29:24;;;;;;;;;;;;;;;;;;4923951;28;19921;-68
2023/02/01 05:31:50;;;;;;;;;;;;;;;;;;4925188;28;19914;-68
2023/02/01 05:34:16;;;;;;;;;;;;;;;;;;4920020;28;20022;-67
2023/02/01 05:36:42;;;;;;;;;;;;;;;;;;4940619;28;20005;-68
2023/02/01 05:39:10;;;;;;;;;;;;;;;;;;4936332;28;19973;-67
2023/02/01 05:41:35;;;;;;;;;;;;;;;;;;4923057;28;19936;-70
2023/02/01 05:44:02;;;;;;;;;;;;;;;;;;4918843;28;20490;-68
2023/02/01 05:46:28;;;;;;;;;;;;;;;;;;4922898;28;20315;-68
2023/02/01 05:48:54;;;;;;;;;;;;;;;;;;4936252;28;20348;-68
2023/02/01 05:51:20;;;;;;;;;;;;;;;;;;4936210;28;20009;-68
2023/02/01 05:53:46;;;;;;;;;;;;;;;;;;4940434;28;19976;-68
2023/02/01 05:56:12;;;;;;;;;;;;;;;;;;4934967;28;20922;-68
2023/02/01 05:58:38;;;;;;;;;;;;;;;;;;4937078;28;20360;-68
2023/02/01 06:01:04;;;;;;;;;;;;;;;;;;4935589;28;20041;-68
2023/02/01 06:03:30;;;;;;;;;;;;;;;;;;4938060;28;19940;-68
2023/02/01 06:05:56;;;;;;;;;;;;;;;;;;4935248;28;20289;-68
2023/02/01 06:08:25;;;;;;;;;;;;;;;;;;4940992;28;19925;-68
2023/02/01 06:10:51;;;;;;;;;;;;;;;;;;4922108;28;19913;-68
2023/02/01 06:13:17;;;;;;;;;;;;;;;;;;4940230;28;20086;-67
2023/02/01 06:15:44;;;;;;;;;;;;;;;;;;4936715;28;20463;-67
2023/02/01 06:18:10;;;;;;;;;;;;;;;;;;4928058;28;19922;-68
2023/02/01 06:20:36;;;;;;;;;;;;;;;;;;4927982;28;20447;-67
2023/02/01 06:23:02;;;;;;;;;;;;;;;;;;4940466;28;20025;-68
2023/02/01 06:25:28;;;;;;;;;;;;;;;;;;4923505;28;19925;-68
2023/02/01 06:27:54;;;;;;;;;;;;;;;;;;4941617;28;20463;-68
2023/02/01 06:30:20;;;;;;;;;;;;;;;;;;4947035;28;20129;-67
2023/02/01 06:32:45;;;;;;;;;;;;;;;;;;4924416;28;19961;-67
2023/02/01 06:35:15;;;;;;;;;;;;;;;;;;4940052;28;21321;-70
2023/02/01 06:37:41;;;;;;;;;;;;;;;;;;4942544;28;20436;-69
2023/02/01 06:40:08;;;;;;;;;;;;;;;;;;4923483;28;19921;-69
2023/02/01 06:42:34;;;;;;;;;;;;;;;;;;4927419;28;19946;-70
2023/02/01 06:45:00;;;;;;;;;;;;;;;;;;4921247;28;20013;-69
2023/02/01 06:47:26;;;;;;;;;;;;;;;;;;4941220;28;19921;-69
2023/02/01 06:49:52;;;;;;;;;;;;;;;;;;4923499;28;19922;-69
2023/02/01 06:52:18;;;;;;;;;;;;;;;;;;4940097;28;19914;-69
2023/02/01 06:54:44;;;;;;;;;;;;;;;;;;4927405;28;20344;-69
2023/02/01 06:57:10;;;;;;;;;;;;;;;;;;4919007;28;19922;-69
2023/02/01 06:59:36;;;;;;;;;;;;;;;;;;4923814;28;20364;-70
2023/02/01 07:02:02;;;;;;;;;;;;;;;;;;4921808;28;20288;-68
2023/02/01 07:04:28;;;;;;;;;;;;;;;;;;4922258;28;19997;-70
2023/02/01 07:06:54;;;;;;;;;;;;;;;;;;4939183;28;19924;-68
2023/02/01 07:09:20;;;;;;;;;;;;;;;;;;4943161;28;19914;-68
2023/02/01 07:11:46;;;;;;;;;;;;;;;;;;4944146;28;20408;-68
2023/02/01 07:14:11;;;;;;;;;;;;;;;;;;4936418;28;21679;-68
2023/02/01 07:16:37;;;;;;;;;;;;;;;;;;4924172;28;19961;-68
2023/02/01 07:19:03;;;;;;;;;;;;;;;;;;4937595;28;19981;-68
2023/02/01 07:21:29;;;;;;;;;;;;;;;;;;4942172;28;20300;-68
2023/02/01 07:23:55;;;;;;;;;;;;;;;;;;4938938;28;19914;-68
2023/02/01 07:26:21;;;;;;;;;;;;;;;;;;4942406;28;19918;-68
2023/02/01 07:28:47;;;;;;;;;;;;;;;;;;4941640;28;19929;-68
2023/02/01 07:31:15;;;;;;;;;;;;;;;;;;4938061;28;19926;-68
2023/02/01 07:33:41;;;;;;;;;;;;;;;;;;4922845;28;20361;-68
2023/02/01 07:36:07;;;;;;;;;;;;;;;;;;4939641;28;20377;-68
2023/02/01 07:38:33;;;;;;;;;;;;;;;;;;4939985;28;20496;-68
2023/02/01 07:40:59;;;;;;;;;;;;;;;;;;4925443;28;19968;-68
2023/02/01 07:43:25;;;;;;;;;;;;;;;;;;4943194;28;20001;-68
2023/02/01 07:45:51;;;;;;;;;;;;;;;;;;4937898;28;19914;-68
2023/02/01 07:48:18;;;;;;;;;;;;;;;;;;4943022;28;20110;-68
2023/02/01 07:50:43;;;;;;;;;;;;;;;;;;4941088;28;20375;-69
2023/02/01 07:53:09;;;;;;;;;;;;;;;;;;4934885;28;20221;-69
2023/02/01 07:55:36;;;;;;;;;;;;;;;;;;4927051;28;20262;-69
2023/02/01 07:58:02;;;;;;;;;;;;;;;;;;4936726;28;19922;-69
2023/02/01 08:03:13;;;;;;;;;;;;;;;;;;4934729;28;19941;-68
2023/02/01 08:05:39;;;;;;;;;;;;;;;;;;4940672;28;19914;-68
2023/02/01 08:08:05;;;;;;;;;;;;;;;;;;4919323;28;20000;-68
2023/02/01 08:10:31;;;;;;;;;;;;;;;;;;4936089;28;19922;-68
2023/02/01 08:12:57;;;;;;;;;;;;;;;;;;4921429;28;19914;-68
2023/02/01 08:15:23;;;;;;;;;;;;;;;;;;4925037;28;19918;-68
2023/02/01 08:17:48;;;;;;;;;;;;;;;;;;4940183;28;19918;-68
2023/02/01 08:20:14;;;;;;;;;;;;;;;;;;4918963;28;19993;-68
2023/02/01 08:22:40;;;;;;;;;;;;;;;;;;4939500;28;20606;-68
2023/02/01 08:25:06;;;;;;;;;;;;;;;;;;4935883;28;19921;-68
2023/02/01 08:27:32;;;;;;;;;;;;;;;;;;4939747;28;20353;-70
2023/02/01 08:29:59;;;;;;;;;;;;;;;;;;4919436;28;19914;-67
2023/02/01 08:32:25;;;;;;;;;;;;;;;;;;4937478;28;21068;-70
2023/02/01 08:34:50;;;;;;;;;;;;;;;;;;4940321;28;20077;-69
2023/02/01 08:37:16;;;;;;;;;;;;;;;;;;4921383;28;19921;-69
2023/02/01 08:39:46;;;;;;;;;;;;;;;;;;4940504;28;19918;-70
2023/02/01 08:44:57;;;;;;;;;;;;;;;;;;4937719;28;19921;-70
2023/02/01 08:49:59;;;;;;;;;;;;;;;;;;5103356;23;19932;-70
2023/02/01 08:52:25;;;;;;;;;;;;;;;;;;4984273;28;19913;-70
2023/02/01 08:54:51;;;;;;;;;;;;;;;;;;4991231;28;20087;-70
2023/02/01 08:57:17;;;;;;;;;;;;;;;;;;4991069;28;19913;-70
2023/02/01 08:59:46;;;;;;;;;;;;;;;;;;4992501;28;20392;-70
2023/02/01 09:02:12;;;;;;;;;;;;;;;;;;4989631;28;21799;-70
2023/02/01 09:04:38;;;;;;;;;;;;;;;;;;4988509;28;20486;-70
2023/02/01 09:07:04;;;;;;;;;;;;;;;;;;4990798;28;19920;-70
2023/02/01 09:09:30;;;;;;;;;;;;;;;;;;4993474;28;20016;-70
2023/02/01 09:11:56;;;;;;;;;;;;;;;;;;4987836;28;20454;-70
2023/02/01 09:14:22;;;;;;;;;;;;;;;;;;4970959;28;20055;-70
2023/02/01 09:16:48;;;;;;;;;;;;;;;;;;4990124;28;19935;-70
2023/02/01 09:19:14;;;;;;;;;;;;;;;;;;4985014;28;19957;-70
2023/02/01 09:21:41;;;;;;;;;;;;;;;;;;4988674;28;19924;-70
2023/02/01 09:24:07;;;;;;;;;;;;;;;;;;4988453;28;20371;-70
2023/02/01 09:26:33;;;;;;;;;;;;;;;;;;4995878;28;19917;-70
2023/02/01 09:28:59;;;;;;;;;;;;;;;;;;4988973;28;19916;-70
2023/02/01 09:31:25;;;;;;;;;;;;;;;;;;4976333;28;19913;-70
2023/02/01 09:33:51;;;;;;;;;;;;;;;;;;4995140;28;19971;-70
2023/02/01 09:36:19;;;;;;;;;;;;;;;;;;4977524;28;19918;-70
2023/02/01 09:38:45;;;;;;;;;;;;;;;;;;4989671;28;20332;-70
2023/02/01 09:41:11;;;;;;;;;;;;;;;;;;4987577;28;20462;-70
2023/02/01 09:43:40;;;;;;;;;;;;;;;;;;4995511;28;20086;-70
2023/02/01 09:46:06;;;;;;;;;;;;;;;;;;4974408;28;19924;-70
2023/02/01 09:48:32;;;;;;;;;;;;;;;;;;4991006;28;20459;-70
2023/02/01 09:50:58;;;;;;;;;;;;;;;;;;4985622;28;19984;-70
2023/02/01 09:53:24;;;;;;;;;;;;;;;;;;4970882;28;20342;-70
2023/02/01 09:55:50;;;;;;;;;;;;;;;;;;4986349;28;20016;-70
2023/02/01 09:58:16;;;;;;;;;;;;;;;;;;4969673;28;19921;-70
2023/02/01 10:00:42;;;;;;;;;;;;;;;;;;4970698;28;20036;-69
2023/02/01 10:03:08;;;;;;;;;;;;;;;;;;4965543;28;19913;-70
2023/02/01 10:05:34;;;;;;;;;;;;;;;;;;4989444;28;19913;-70
2023/02/01 10:08:00;;;;;;;;;;;;;;;;;;4986858;28;19909;-70
2023/02/01 10:10:26;;;;;;;;;;;;;;;;;;4986867;28;19959;-70
2023/02/01 10:12:52;;;;;;;;;;;;;;;;;;4988115;28;19931;-70
2023/02/01 10:15:18;;;;;;;;;;;;;;;;;;4972510;28;20386;-70
2023/02/01 10:17:44;;;;;;;;;;;;;;;;;;4968916;28;19909;-71
2023/02/01 10:20:10;;;;;;;;;;;;;;;;;;4984852;28;19924;-70
2023/02/01 10:22:36;;;;;;;;;;;;;;;;;;4969431;28;20394;-70
2023/02/01 10:25:02;;;;;;;;;;;;;;;;;;4983683;28;19913;-70
2023/02/01 10:27:29;;;;;;;;;;;;;;;;;;4969529;28;20339;-71
2023/02/01 10:29:55;;;;;;;;;;;;;;;;;;4987103;28;20466;-71
2023/02/01 10:32:21;;;;;;;;;;;;;;;;;;4970511;28;20008;-72
2023/02/01 10:34:47;;;;;;;;;;;;;;;;;;4990018;28;20380;-72
2023/02/01 10:37:13;;;;;;;;;;;;;;;;;;4966860;28;20301;-74
2023/02/01 10:39:39;;;;;;;;;;;;;;;;;;4972736;28;19917;-73
2023/02/01 10:42:05;;;;;;;;;;;;;;;;;;4982990;28;19913;-72
2023/02/01 10:44:31;;;;;;;;;;;;;;;;;;4989001;28;20422;-73
2023/02/01 10:46:57;;;;;;;;;;;;;;;;;;4968673;28;19913;-73
2023/02/01 10:49:23;;;;;;;;;;;;;;;;;;4985053;28;19932;-73
2023/02/01 10:51:49;;;;;;;;;;;;;;;;;;4985868;28;19917;-73
2023/02/01 10:54:15;;;;;;;;;;;;;;;;;;4965262;28;20011;-73
2023/02/01 10:56:41;;;;;;;;;;;;;;;;;;4970476;28;19912;-73
2023/02/01 10:59:07;;;;;;;;;;;;;;;;;;4966401;28;20222;-73
2023/02/01 11:01:33;;;;;;;;;;;;;;;;;;4971809;28;19947;-73
2023/02/01 11:03:59;;;;;;;;;;;;;;;;;;4985297;28;19913;-72
2023/02/01 11:06:25;;;;;;;;;;;;;;;;;;4973585;28;19924;-72
2023/02/01 11:08:51;;;;;;;;;;;;;;;;;;4991440;28;19972;-73
2023/02/01 11:11:17;;;;;;;;;;;;;;;;;;4978628;28;19920;-73
2023/02/01 11:13:43;;;;;;;;;;;;;;;;;;4990163;28;20648;-71
2023/02/01 11:16:09;;;;;;;;;;;;;;;;;;4970915;28;20074;-72
2023/02/01 11:18:35;;;;;;;;;;;;;;;;;;4991085;28;20570;-73
2023/02/01 11:21:01;;;;;;;;;;;;;;;;;;4991171;28;19925;-74
2023/02/01 11:23:27;;;;;;;;;;;;;;;;;;4973385;28;20707;-73
2023/02/01 11:25:53;;;;;;;;;;;;;;;;;;4986551;28;19920;-72
2023/02/01 11:28:19;;;;;;;;;;;;;;;;;;4977914;28;19935;-72
2023/02/01 11:30:45;;;;;;;;;;;;;;;;;;4971612;28;19917;-72
2023/02/01 11:33:11;;;;;;;;;;;;;;;;;;4991495;28;19920;-71
2023/02/01 11:35:37;;;;;;;;;;;;;;;;;;4991952;28;20016;-72
2023/02/01 11:38:03;;;;;;;;;;;;;;;;;;4987317;28;19917;-73
2023/02/01 11:40:30;;;;;;;;;;;;;;;;;;4976284;28;19958;-72
2023/02/01 11:42:56;;;;;;;;;;;;;;;;;;4986854;28;19925;-72
2023/02/01 11:45:22;;;;;;;;;;;;;;;;;;4990773;28;20383;-72
2023/02/01 11:47:48;;;;;;;;;;;;;;;;;;4990530;28;20023;-72
2023/02/01 11:50:13;;;;;;;;;;;;;;;;;;4968744;28;19925;-72
2023/02/01 11:52:40;;;;;;;;;;;;;;;;;;4970893;28;19916;-73
2023/02/01 11:55:06;;;;;;;;;;;;;;;;;;4985893;28;19913;-73
2023/02/01 11:57:32;;;;;;;;;;;;;;;;;;4977346;28;20178;-73
2023/02/01 11:59:58;;;;;;;;;;;;;;;;;;4990203;28;20688;-72
2023/02/01 12:02:24;;;;;;;;;;;;;;;;;;4987904;28;20344;-71
2023/02/01 12:04:51;;;;;;;;;;;;;;;;;;4990764;28;19913;-73
2023/02/01 12:07:17;;;;;;;;;;;;;;;;;;4971966;28;19913;-74
2023/02/01 12:09:43;;;;;;;;;;;;;;;;;;4988983;28;20552;-73
2023/02/01 12:12:09;;;;;;;;;;;;;;;;;;4966077;28;19964;-73
2023/02/01 12:14:35;;;;;;;;;;;;;;;;;;4976369;28;19917;-72
2023/02/01 12:17:01;;;;;;;;;;;;;;;;;;4970480;28;19913;-71
2023/02/01 12:19:27;;;;;;;;;;;;;;;;;;4987046;28;19925;-73
2023/02/01 12:21:53;;;;;;;;;;;;;;;;;;4985657;28;19940;-73
2023/02/01 12:24:19;;;;;;;;;;;;;;;;;;4987689;28;20227;-73
2023/02/01 12:26:45;;;;;;;;;;;;;;;;;;4969983;28;19909;-73
2023/02/01 12:29:11;;;;;;;;;;;;;;;;;;4984834;28;19997;-73
2023/02/01 12:31:37;;;;;;;;;;;;;;;;;;4987561;28;19921;-74
2023/02/01 12:34:03;;;;;;;;;;;;;;;;;;4985830;28;19910;-73
2023/02/01 12:36:29;;;;;;;;;;;;;;;;;;4970163;28;19913;-73
2023/02/01 12:38:55;;;;;;;;;;;;;;;;;;4966698;28;20367;-72
2023/02/01 12:41:21;;;;;;;;;;;;;;;;;;4975135;28;19920;-71
2023/02/01 12:43:47;;;;;;;;;;;;;;;;;;4975738;28;19917;-72
2023/02/01 12:46:13;;;;;;;;;;;;;;;;;;4982666;28;19923;-73
2023/02/01 12:48:40;;;;;;;;;;;;;;;;;;4984095;28;19954;-73
2023/02/01 12:51:06;;;;;;;;;;;;;;;;;;4968780;28;19921;-71
2023/02/01 12:53:32;;;;;;;;;;;;;;;;;;4988438;28;19918;-72
2023/02/01 12:55:58;;;;;;;;;;;;;;;;;;4982144;28;19913;-72
2023/02/01 12:58:24;;;;;;;;;;;;;;;;;;4984631;28;20311;-74
2023/02/01 13:00:50;;;;;;;;;;;;;;;;;;4986521;28;19953;-73
2023/02/01 13:03:16;;;;;;;;;;;;;;;;;;4981934;28;20601;-73
2023/02/01 13:05:42;;;;;;;;;;;;;;;;;;4988693;28;19909;-73
2023/02/01 13:08:08;;;;;;;;;;;;;;;;;;4981586;28;19939;-73
2023/02/01 13:10:34;;;;;;;;;;;;;;;;;;4972492;28;20023;-73
2023/02/01 13:13:00;;;;;;;;;;;;;;;;;;4980946;28;20003;-72
2023/02/01 13:15:26;;;;;;;;;;;;;;;;;;4985481;28;20485;-72
2023/02/01 13:17:53;;;;;;;;;;;;;;;;;;4983401;28;19920;-73
2023/02/01 13:20:19;;;;;;;;;;;;;;;;;;4966454;28;20509;-72
2023/02/01 13:22:45;;;;;;;;;;;;;;;;;;4964638;28;19920;-70
2023/02/01 13:25:12;;;;;;;;;;;;;;;;;;4960596;28;20351;-73
2023/02/01 13:27:38;;;;;;;;;;;;;;;;;;4963720;28;20011;-73
2023/02/01 13:30:04;;;;;;;;;;;;;;;;;;4966301;28;19917;-73
2023/02/01 13:32:30;;;;;;;;;;;;;;;;;;4980690;28;20363;-72
2023/02/01 13:34:56;;;;;;;;;;;;;;;;;;4962770;28;20520;-72
2023/02/01 13:37:22;;;;;;;;;;;;;;;;;;4984517;28;19937;-73
2023/02/01 13:39:48;;;;;;;;;;;;;;;;;;4970278;28;19921;-72
2023/02/01 13:42:14;;;;;;;;;;;;;;;;;;4985527;28;19912;-72
2023/02/01 13:44:40;;;;;;;;;;;;;;;;;;4966602;28;20217;-72
2023/02/01 13:47:06;;;;;;;;;;;;;;;;;;4963518;28;21621;-72
2023/02/01 13:49:32;;;;;;;;;;;;;;;;;;4971508;28;19932;-72
2023/02/01 13:51:58;;;;;;;;;;;;;;;;;;4968877;28;20265;-74
2023/02/01 13:54:24;;;;;;;;;;;;;;;;;;4986943;28;19913;-74
2023/02/01 13:56:50;;;;;;;;;;;;;;;;;;4986513;28;19920;-72
2023/02/01 13:59:16;;;;;;;;;;;;;;;;;;4985480;28;19926;-72
2023/02/01 14:01:42;;;;;;;;;;;;;;;;;;4970009;28;20243;-73
2023/02/01 14:04:08;;;;;;;;;;;;;;;;;;4983176;28;20258;-73
2023/02/01 14:06:34;;;;;;;;;;;;;;;;;;4969496;28;20359;-71
2023/02/01 14:09:00;;;;;;;;;;;;;;;;;;4980155;28;19960;-74
2023/02/01 14:11:26;;;;;;;;;;;;;;;;;;4965112;28;19910;-72
2023/02/01 14:13:52;;;;;;;;;;;;;;;;;;4982490;28;19913;-72
2023/02/01 14:16:18;;;;;;;;;;;;;;;;;;4971614;28;19968;-72
2023/02/01 14:18:46;;;;;;;;;;;;;;;;;;4983844;28;20446;-74
2023/02/01 14:21:12;;;;;;;;;;;;;;;;;;4982068;28;19967;-72
2023/02/01 14:23:38;;;;;;;;;;;;;;;;;;4985394;28;20012;-72
2023/02/01 14:26:04;;;;;;;;;;;;;;;;;;4983321;28;20581;-72
2023/02/01 14:28:30;;;;;;;;;;;;;;;;;;4986623;28;19920;-73
2023/02/01 14:30:56;;;;;;;;;;;;;;;;;;4982341;28;19920;-71
2023/02/01 14:33:22;;;;;;;;;;;;;;;;;;4987293;28;20562;-73
2023/02/01 14:35:48;;;;;;;;;;;;;;;;;;4984958;28;20390;-71
2023/02/01 14:38:14;;;;;;;;;;;;;;;;;;4983465;28;19955;-73
2023/02/01 14:40:39;;;;;;;;;;;;;;;;;;4971536;28;19913;-72
2023/02/01 14:43:05;;;;;;;;;;;;;;;;;;4971824;28;20233;-71
2023/02/01 14:45:31;;;;;;;;;;;;;;;;;;4989483;28;20454;-71
2023/02/01 14:47:57;;;;;;;;;;;;;;;;;;4967548;28;19917;-71
2023/02/01 14:50:23;;;;;;;;;;;;;;;;;;4971754;28;19917;-71
2023/02/01 14:52:49;;;;;;;;;;;;;;;;;;4974687;28;20433;-71
2023/02/01 14:55:15;;;;;;;;;;;;;;;;;;4967947;28;20564;-72
2023/02/01 14:57:41;;;;;;;;;;;;;;;;;;4991822;28;20020;-72
2023/02/01 15:00:08;;;;;;;;;;;;;;;;;;4986340;28;20311;-71
2023/02/01 15:02:34;;;;;;;;;;;;;;;;;;4987984;28;19920;-71
2023/02/01 15:05:00;;;;;;;;;;;;;;;;;;4985834;28;19914;-71
2023/02/01 15:07:26;;;;;;;;;;;;;;;;;;4991618;28;20435;-71
2023/02/01 15:09:52;;;;;;;;;;;;;;;;;;4991003;28;19915;-72
2023/02/01 15:12:20;;;;;;;;;;;;;;;;;;4989825;28;19917;-73
2023/02/01 15:14:48;;;;;;;;;;;;;;;;;;4992909;28;20300;-72
2023/02/01 15:17:14;;;;;;;;;;;;;;;;;;4988366;28;19917;-71
2023/02/01 15:19:40;;;;;;;;;;;;;;;;;;4987155;28;20378;-72
2023/02/01 15:22:06;;;;;;;;;;;;;;;;;;4985887;28;20007;-71
2023/02/01 15:24:32;;;;;;;;;;;;;;;;;;4991210;28;19928;-71
2023/02/01 15:26:58;;;;;;;;;;;;;;;;;;4987328;28;19917;-73
2023/02/01 15:29:32;;;;;;;;;;;;;;;;;;4970987;28;20610;-73
2023/02/01 15:31:58;;;;;;;;;;;;;;;;;;4969179;28;20028;-72
2023/02/01 15:34:24;;;;;;;;;;;;;;;;;;4990094;28;19919;-71
2023/02/01 15:36:50;;;;;;;;;;;;;;;;;;4990107;28;19944;-74
2023/02/01 15:39:19;;;;;;;;;;;;;;;;;;4987794;28;20159;-73
2023/02/01 15:41:45;;;;;;;;;;;;;;;;;;4969926;28;19990;-73
2023/02/01 15:44:11;;;;;;;;;;;;;;;;;;4987930;28;19921;-72
2023/02/01 15:46:37;;;;;;;;;;;;;;;;;;4993486;28;19917;-71
2023/02/01 15:49:03;;;;;;;;;;;;;;;;;;4987259;28;19921;-72
2023/02/01 15:51:30;;;;;;;;;;;;;;;;;;4990060;28;20462;-73
2023/02/01 15:53:56;;;;;;;;;;;;;;;;;;4971385;28;20471;-71
2023/02/01 15:56:22;;;;;;;;;;;;;;;;;;4992500;28;19923;-73
2023/02/01 15:58:48;;;;;;;;;;;;;;;;;;4975179;28;20356;-72
2023/02/01 16:01:14;;;;;;;;;;;;;;;;;;4991033;28;20000;-73
2023/02/01 16:03:41;;;;;;;;;;;;;;;;;;4988892;28;20248;-73
2023/02/01 16:06:07;;;;;;;;;;;;;;;;;;4972512;28;20224;-72
2023/02/01 16:08:34;;;;;;;;;;;;;;;;;;4992427;28;19915;-72
2023/02/01 16:11:01;;;;;;;;;;;;;;;;;;4989158;28;19918;-73
2023/02/01 16:13:27;;;;;;;;;;;;;;;;;;4972886;28;20683;-74
2023/02/01 16:15:53;;;;;;;;;;;;;;;;;;4987960;28;19920;-71
2023/02/01 16:18:19;;;;;;;;;;;;;;;;;;4988117;28;20322;-72
2023/02/01 16:20:45;;;;;;;;;;;;;;;;;;4973859;28;19963;-71
2023/02/01 16:23:11;;;;;;;;;;;;;;;;;;4987044;28;20438;-72
2023/02/01 16:25:37;;;;;;;;;;;;;;;;;;4971717;28;20063;-72
2023/02/01 16:28:04;;;;;;;;;;;;;;;;;;4965894;28;19913;-71
2023/02/01 16:30:30;;;;;;;;;;;;;;;;;;4977709;28;20219;-71
2023/02/01 16:32:57;;;;;;;;;;;;;;;;;;4992353;28;19909;-74
2023/02/01 16:35:23;;;;;;;;;;;;;;;;;;4998367;28;19913;-73
2023/02/01 16:37:49;;;;;;;;;;;;;;;;;;4992018;28;19925;-74
2023/02/01 16:40:15;;;;;;;;;;;;;;;;;;4969077;28;19917;-73
2023/02/01 16:42:41;;;;;;;;;;;;;;;;;;4972759;28;19913;-73
2023/02/01 16:45:08;;;;;;;;;;;;;;;;;;4984288;28;20027;-71
2023/02/01 16:50:00;;;;;;;;;;;;;;;;;;5625919;23;19937;-71
2023/02/01 16:52:26;;;;;;;;;;;;;;;;;;4937958;28;19969;-71
2023/02/01 16:54:52;;;;;;;;;;;;;;;;;;4956045;28;20330;-72
2023/02/01 16:57:19;;;;;;;;;;;;;;;;;;4940607;28;20414;-71
2023/02/01 16:59:45;;;;;;;;;;;;;;;;;;4937444;28;20517;-70
2023/02/01 17:02:11;;;;;;;;;;;;;;;;;;4938224;28;19918;-70
2023/02/01 17:04:37;;;;;;;;;;;;;;;;;;4953301;28;19914;-70
2023/02/01 17:07:08;;;;;;;;;;;;;;;;;;4937417;28;20437;-72
2023/02/01 17:09:35;;;;;;;;;;;;;;;;;;4942101;28;20231;-73
2023/02/01 17:12:01;;;;;;;;;;;;;;;;;;4939005;28;20510;-72
2023/02/01 17:14:27;;;;;;;;;;;;;;;;;;4940519;28;20009;-73